Weather at Belgrade Nikola Tesla Airport

Public forecast

Using degrees Celsius for public forecast. Weather courtesy of forecast.io.

Current aviation weather report (METAR) for Belgrade Nikola Tesla Airport

Report is more than 6 hours old.

2022/11/14 15:30 (retrieved 2 years ago)

LYBE 141530Z 10004KT CAVOK 13/07 Q1022 NOSIG

Aviation forecast (TAF) for Belgrade Nikola Tesla Airport

Forecast is more than 12 hours old.

2023/02/22 18:22 (retrieved 1 year ago)

TAF LYBE 221700Z 2218/2318 05004KT CAVOK TX16/2313Z TN03/2306Z TEMPO 2304/2307 4000 BR BECMG 2310/2312 11012KT